sensor_id;sensor_type;location;lat;lon;timestamp;P1;durP1;ratioP1;P2;durP2;ratioP2
5157;SDS011;2598;52.364;9.772;2023-01-08T00:01:47;5.97;;;2.13;;
5157;SDS011;2598;52.364;9.772;2023-01-08T00:04:13;5.67;;;2.40;;
5157;SDS011;2598;52.364;9.772;2023-01-08T00:06:41;4.57;;;1.90;;
5157;SDS011;2598;52.364;9.772;2023-01-08T00:09:08;5.37;;;2.23;;
5157;SDS011;2598;52.364;9.772;2023-01-08T00:11:34;6.13;;;1.90;;
5157;SDS011;2598;52.364;9.772;2023-01-08T00:14:00;6.90;;;2.60;;
5157;SDS011;2598;52.364;9.772;2023-01-08T00:16:26;4.70;;;2.10;;
5157;SDS011;2598;52.364;9.772;2023-01-08T00:18:52;9.90;;;2.30;;
5157;SDS011;2598;52.364;9.772;2023-01-08T00:21:18;6.00;;;2.53;;
5157;SDS011;2598;52.364;9.772;2023-01-08T00:23:44;4.83;;;2.40;;
5157;SDS011;2598;52.364;9.772;2023-01-08T00:26:10;7.70;;;2.07;;
5157;SDS011;2598;52.364;9.772;2023-01-08T00:28:37;6.00;;;2.37;;
5157;SDS011;2598;52.364;9.772;2023-01-08T00:31:03;5.23;;;2.37;;
5157;SDS011;2598;52.364;9.772;2023-01-08T00:33:30;5.50;;;2.27;;
5157;SDS011;2598;52.364;9.772;2023-01-08T00:35:56;6.20;;;2.40;;
5157;SDS011;2598;52.364;9.772;2023-01-08T00:38:25;5.63;;;2.30;;
5157;SDS011;2598;52.364;9.772;2023-01-08T00:40:51;5.47;;;2.33;;
5157;SDS011;2598;52.364;9.772;2023-01-08T00:43:17;4.77;;;2.20;;
5157;SDS011;2598;52.364;9.772;2023-01-08T00:45:43;6.43;;;2.63;;
5157;SDS011;2598;52.364;9.772;2023-01-08T00:48:09;5.73;;;2.40;;
5157;SDS011;2598;52.364;9.772;2023-01-08T00:50:36;5.50;;;2.33;;
5157;SDS011;2598;52.364;9.772;2023-01-08T00:53:02;7.57;;;2.23;;
5157;SDS011;2598;52.364;9.772;2023-01-08T00:55:28;5.77;;;2.50;;
5157;SDS011;2598;52.364;9.772;2023-01-08T00:57:54;6.37;;;2.60;;
5157;SDS011;2598;52.364;9.772;2023-01-08T01:00:22;6.17;;;2.30;;
5157;SDS011;2598;52.364;9.772;2023-01-08T01:02:48;4.73;;;1.90;;
5157;SDS011;2598;52.364;9.772;2023-01-08T01:05:14;7.33;;;2.50;;
5157;SDS011;2598;52.364;9.772;2023-01-08T01:07:41;6.20;;;2.67;;
5157;SDS011;2598;52.364;9.772;2023-01-08T01:10:07;6.00;;;2.27;;
5157;SDS011;2598;52.364;9.772;2023-01-08T01:12:33;6.90;;;2.70;;
5157;SDS011;2598;52.364;9.772;2023-01-08T01:15:01;6.17;;;2.73;;
5157;SDS011;2598;52.364;9.772;2023-01-08T01:17:27;8.90;;;2.70;;
5157;SDS011;2598;52.364;9.772;2023-01-08T01:19:53;6.43;;;2.50;;
5157;SDS011;2598;52.364;9.772;2023-01-08T01:22:19;5.33;;;2.23;;
5157;SDS011;2598;52.364;9.772;2023-01-08T01:24:45;7.03;;;2.73;;
5157;SDS011;2598;52.364;9.772;2023-01-08T01:27:11;7.20;;;2.87;;
5157;SDS011;2598;52.364;9.772;2023-01-08T01:29:37;6.10;;;2.60;;
5157;SDS011;2598;52.364;9.772;2023-01-08T01:32:03;7.30;;;2.80;;
5157;SDS011;2598;52.364;9.772;2023-01-08T01:34:30;5.67;;;2.70;;
5157;SDS011;2598;52.364;9.772;2023-01-08T01:36:55;6.13;;;2.60;;
5157;SDS011;2598;52.364;9.772;2023-01-08T01:39:21;5.40;;;2.87;;
5157;SDS011;2598;52.364;9.772;2023-01-08T01:41:47;6.90;;;2.73;;
5157;SDS011;2598;52.364;9.772;2023-01-08T01:44:33;5.37;;;2.50;;
5157;SDS011;2598;52.364;9.772;2023-01-08T01:49:59;5.33;;;2.40;;
5157;SDS011;2598;52.364;9.772;2023-01-08T01:52:26;6.27;;;2.70;;
5157;SDS011;2598;52.364;9.772;2023-01-08T01:54:53;5.70;;;2.57;;
5157;SDS011;2598;52.364;9.772;2023-01-08T01:57:19;6.23;;;2.73;;
5157;SDS011;2598;52.364;9.772;2023-01-08T01:59:46;6.47;;;2.27;;
5157;SDS011;2598;52.364;9.772;2023-01-08T02:02:12;5.90;;;2.90;;
5157;SDS011;2598;52.364;9.772;2023-01-08T02:04:38;6.93;;;2.87;;
5157;SDS011;2598;52.364;9.772;2023-01-08T02:07:07;5.30;;;2.20;;
5157;SDS011;2598;52.364;9.772;2023-01-08T02:12:04;8.00;;;2.80;;
5157;SDS011;2598;52.364;9.772;2023-01-08T02:17:29;12.47;;;3.40;;
5157;SDS011;2598;52.364;9.772;2023-01-08T02:22:44;6.53;;;2.30;;
5157;SDS011;2598;52.364;9.772;2023-01-08T02:27:45;6.30;;;2.73;;
5157;SDS011;2598;52.364;9.772;2023-01-08T02:30:12;8.73;;;2.40;;
5157;SDS011;2598;52.364;9.772;2023-01-08T02:32:39;6.30;;;2.63;;
5157;SDS011;2598;52.364;9.772;2023-01-08T02:35:07;5.47;;;2.63;;
5157;SDS011;2598;52.364;9.772;2023-01-08T02:37:34;7.10;;;2.47;;
5157;SDS011;2598;52.364;9.772;2023-01-08T02:45:22;7.50;;;2.80;;
5157;SDS011;2598;52.364;9.772;2023-01-08T02:47:53;5.50;;;2.57;;
5157;SDS011;2598;52.364;9.772;2023-01-08T02:52:57;6.13;;;2.70;;
5157;SDS011;2598;52.364;9.772;2023-01-08T02:55:25;4.63;;;2.07;;
5157;SDS011;2598;52.364;9.772;2023-01-08T02:57:51;6.10;;;2.87;;
5157;SDS011;2598;52.364;9.772;2023-01-08T03:00:18;6.00;;;2.47;;
5157;SDS011;2598;52.364;9.772;2023-01-08T03:02:44;6.70;;;2.57;;
5157;SDS011;2598;52.364;9.772;2023-01-08T03:05:24;6.33;;;2.63;;
5157;SDS011;2598;52.364;9.772;2023-01-08T03:07:51;6.00;;;2.40;;
5157;SDS011;2598;52.364;9.772;2023-01-08T03:10:18;6.40;;;2.60;;
5157;SDS011;2598;52.364;9.772;2023-01-08T03:12:53;5.93;;;2.73;;
5157;SDS011;2598;52.364;9.772;2023-01-08T03:15:22;5.63;;;2.40;;
5157;SDS011;2598;52.364;9.772;2023-01-08T03:17:49;5.97;;;2.57;;
5157;SDS011;2598;52.364;9.772;2023-01-08T03:20:16;6.33;;;2.70;;
5157;SDS011;2598;52.364;9.772;2023-01-08T03:22:45;7.13;;;2.90;;
5157;SDS011;2598;52.364;9.772;2023-01-08T03:25:12;5.37;;;2.87;;
5157;SDS011;2598;52.364;9.772;2023-01-08T03:27:40;7.30;;;2.53;;
5157;SDS011;2598;52.364;9.772;2023-01-08T03:30:07;6.63;;;2.80;;
5157;SDS011;2598;52.364;9.772;2023-01-08T03:32:34;7.27;;;2.50;;
5157;SDS011;2598;52.364;9.772;2023-01-08T03:35:01;6.40;;;2.50;;
5157;SDS011;2598;52.364;9.772;2023-01-08T03:37:38;5.80;;;2.37;;
5157;SDS011;2598;52.364;9.772;2023-01-08T03:42:34;9.70;;;2.60;;
5157;SDS011;2598;52.364;9.772;2023-01-08T03:45:00;5.67;;;2.53;;
5157;SDS011;2598;52.364;9.772;2023-01-08T03:47:26;4.90;;;2.17;;
5157;SDS011;2598;52.364;9.772;2023-01-08T03:49:52;7.10;;;2.87;;
5157;SDS011;2598;52.364;9.772;2023-01-08T03:52:23;5.67;;;2.70;;
5157;SDS011;2598;52.364;9.772;2023-01-08T03:54:49;6.53;;;3.27;;
5157;SDS011;2598;52.364;9.772;2023-01-08T03:57:15;5.00;;;2.20;;
5157;SDS011;2598;52.364;9.772;2023-01-08T03:59:41;5.40;;;2.50;;
5157;SDS011;2598;52.364;9.772;2023-01-08T04:02:07;5.63;;;2.37;;
5157;SDS011;2598;52.364;9.772;2023-01-08T04:04:33;7.30;;;2.10;;
5157;SDS011;2598;52.364;9.772;2023-01-08T04:06:59;6.83;;;2.50;;
5157;SDS011;2598;52.364;9.772;2023-01-08T04:09:25;6.20;;;2.63;;
5157;SDS011;2598;52.364;9.772;2023-01-08T04:11:51;6.13;;;2.43;;
5157;SDS011;2598;52.364;9.772;2023-01-08T04:14:17;5.00;;;2.43;;
5157;SDS011;2598;52.364;9.772;2023-01-08T04:16:43;7.63;;;2.57;;
5157;SDS011;2598;52.364;9.772;2023-01-08T04:19:10;5.23;;;2.23;;
5157;SDS011;2598;52.364;9.772;2023-01-08T04:21:36;5.27;;;2.13;;
5157;SDS011;2598;52.364;9.772;2023-01-08T04:24:02;6.40;;;2.40;;
5157;SDS011;2598;52.364;9.772;2023-01-08T04:26:28;6.53;;;2.33;;
5157;SDS011;2598;52.364;9.772;2023-01-08T04:28:54;5.17;;;1.80;;
5157;SDS011;2598;52.364;9.772;2023-01-08T04:31:20;5.83;;;2.70;;
5157;SDS011;2598;52.364;9.772;2023-01-08T04:33:46;6.50;;;2.30;;
5157;SDS011;2598;52.364;9.772;2023-01-08T04:36:12;5.30;;;2.53;;
5157;SDS011;2598;52.364;9.772;2023-01-08T04:38:38;5.00;;;1.93;;
5157;SDS011;2598;52.364;9.772;2023-01-08T04:41:04;5.40;;;2.30;;
5157;SDS011;2598;52.364;9.772;2023-01-08T04:43:30;6.10;;;2.30;;
5157;SDS011;2598;52.364;9.772;2023-01-08T04:45:57;5.37;;;2.23;;
5157;SDS011;2598;52.364;9.772;2023-01-08T04:48:23;6.93;;;2.77;;
5157;SDS011;2598;52.364;9.772;2023-01-08T04:50:49;6.53;;;2.33;;
5157;SDS011;2598;52.364;9.772;2023-01-08T04:53:15;7.30;;;2.33;;
5157;SDS011;2598;52.364;9.772;2023-01-08T04:55:41;5.63;;;2.00;;
5157;SDS011;2598;52.364;9.772;2023-01-08T04:58:07;6.20;;;2.17;;
5157;SDS011;2598;52.364;9.772;2023-01-08T05:00:33;6.00;;;2.20;;
5157;SDS011;2598;52.364;9.772;2023-01-08T05:02:59;4.60;;;1.97;;
5157;SDS011;2598;52.364;9.772;2023-01-08T05:05:25;7.20;;;2.70;;
5157;SDS011;2598;52.364;9.772;2023-01-08T05:07:51;5.70;;;2.13;;
5157;SDS011;2598;52.364;9.772;2023-01-08T05:10:17;5.93;;;1.93;;
5157;SDS011;2598;52.364;9.772;2023-01-08T05:12:43;5.93;;;2.80;;
5157;SDS011;2598;52.364;9.772;2023-01-08T05:15:09;5.60;;;1.80;;
5157;SDS011;2598;52.364;9.772;2023-01-08T05:17:35;4.57;;;1.77;;
5157;SDS011;2598;52.364;9.772;2023-01-08T05:20:01;8.00;;;2.20;;
5157;SDS011;2598;52.364;9.772;2023-01-08T05:22:27;6.47;;;2.37;;
5157;SDS011;2598;52.364;9.772;2023-01-08T05:24:53;5.77;;;2.53;;
5157;SDS011;2598;52.364;9.772;2023-01-08T05:27:19;6.47;;;2.50;;
5157;SDS011;2598;52.364;9.772;2023-01-08T05:29:45;6.30;;;2.67;;
5157;SDS011;2598;52.364;9.772;2023-01-08T05:32:15;7.10;;;2.30;;
5157;SDS011;2598;52.364;9.772;2023-01-08T05:34:42;7.30;;;2.33;;
5157;SDS011;2598;52.364;9.772;2023-01-08T05:37:08;5.93;;;2.67;;
5157;SDS011;2598;52.364;9.772;2023-01-08T05:39:34;6.67;;;3.00;;
5157;SDS011;2598;52.364;9.772;2023-01-08T05:42:00;6.93;;;2.70;;
5157;SDS011;2598;52.364;9.772;2023-01-08T05:44:26;5.93;;;2.37;;
5157;SDS011;2598;52.364;9.772;2023-01-08T05:46:52;9.40;;;2.67;;
5157;SDS011;2598;52.364;9.772;2023-01-08T05:49:19;6.63;;;3.03;;
5157;SDS011;2598;52.364;9.772;2023-01-08T05:51:46;6.50;;;3.07;;
5157;SDS011;2598;52.364;9.772;2023-01-08T05:54:12;7.00;;;3.10;;
5157;SDS011;2598;52.364;9.772;2023-01-08T05:56:38;6.63;;;2.87;;
5157;SDS011;2598;52.364;9.772;2023-01-08T05:59:05;6.90;;;2.90;;
5157;SDS011;2598;52.364;9.772;2023-01-08T06:01:31;8.30;;;3.43;;
5157;SDS011;2598;52.364;9.772;2023-01-08T06:03:57;6.83;;;3.10;;
5157;SDS011;2598;52.364;9.772;2023-01-08T06:06:23;8.10;;;3.00;;
5157;SDS011;2598;52.364;9.772;2023-01-08T06:08:49;5.40;;;2.70;;
5157;SDS011;2598;52.364;9.772;2023-01-08T06:11:15;5.17;;;2.33;;
5157;SDS011;2598;52.364;9.772;2023-01-08T06:13:42;7.10;;;3.07;;
5157;SDS011;2598;52.364;9.772;2023-01-08T06:16:08;5.73;;;2.67;;
5157;SDS011;2598;52.364;9.772;2023-01-08T06:18:34;6.20;;;2.77;;
5157;SDS011;2598;52.364;9.772;2023-01-08T06:21:01;5.30;;;2.70;;
5157;SDS011;2598;52.364;9.772;2023-01-08T06:23:28;6.10;;;2.93;;
5157;SDS011;2598;52.364;9.772;2023-01-08T06:25:55;5.47;;;2.50;;
5157;SDS011;2598;52.364;9.772;2023-01-08T06:28:21;6.00;;;2.90;;
5157;SDS011;2598;52.364;9.772;2023-01-08T06:30:47;5.20;;;2.50;;
5157;SDS011;2598;52.364;9.772;2023-01-08T06:33:13;6.20;;;2.70;;
5157;SDS011;2598;52.364;9.772;2023-01-08T06:35:39;7.00;;;2.90;;
5157;SDS011;2598;52.364;9.772;2023-01-08T06:38:05;6.70;;;3.07;;
5157;SDS011;2598;52.364;9.772;2023-01-08T06:40:31;10.00;;;3.33;;
5157;SDS011;2598;52.364;9.772;2023-01-08T06:43:02;8.30;;;3.27;;
5157;SDS011;2598;52.364;9.772;2023-01-08T06:45:29;6.23;;;2.90;;
5157;SDS011;2598;52.364;9.772;2023-01-08T06:47:58;8.93;;;3.63;;
5157;SDS011;2598;52.364;9.772;2023-01-08T06:50:24;6.20;;;2.80;;
5157;SDS011;2598;52.364;9.772;2023-01-08T06:52:51;7.93;;;3.53;;
5157;SDS011;2598;52.364;9.772;2023-01-08T06:55:18;6.20;;;3.20;;
5157;SDS011;2598;52.364;9.772;2023-01-08T06:57:44;7.60;;;3.47;;
5157;SDS011;2598;52.364;9.772;2023-01-08T07:00:10;6.60;;;3.20;;
5157;SDS011;2598;52.364;9.772;2023-01-08T07:02:36;8.57;;;3.20;;
5157;SDS011;2598;52.364;9.772;2023-01-08T07:05:02;6.67;;;3.30;;
5157;SDS011;2598;52.364;9.772;2023-01-08T07:07:28;5.73;;;3.00;;
5157;SDS011;2598;52.364;9.772;2023-01-08T07:09:54;7.60;;;3.67;;
5157;SDS011;2598;52.364;9.772;2023-01-08T07:12:20;7.47;;;3.57;;
5157;SDS011;2598;52.364;9.772;2023-01-08T07:14:46;6.63;;;3.17;;
5157;SDS011;2598;52.364;9.772;2023-01-08T07:17:12;7.57;;;3.57;;
5157;SDS011;2598;52.364;9.772;2023-01-08T07:19:38;7.43;;;3.57;;
5157;SDS011;2598;52.364;9.772;2023-01-08T07:22:04;7.20;;;3.50;;
5157;SDS011;2598;52.364;9.772;2023-01-08T07:24:30;9.67;;;3.07;;
5157;SDS011;2598;52.364;9.772;2023-01-08T07:26:56;6.90;;;3.43;;
5157;SDS011;2598;52.364;9.772;2023-01-08T07:29:22;8.97;;;3.83;;
5157;SDS011;2598;52.364;9.772;2023-01-08T07:31:47;7.70;;;3.73;;
5157;SDS011;2598;52.364;9.772;2023-01-08T07:34:13;8.60;;;3.57;;
5157;SDS011;2598;52.364;9.772;2023-01-08T07:36:39;7.63;;;3.23;;
5157;SDS011;2598;52.364;9.772;2023-01-08T07:39:05;8.63;;;3.50;;
5157;SDS011;2598;52.364;9.772;2023-01-08T07:41:31;7.83;;;3.90;;
5157;SDS011;2598;52.364;9.772;2023-01-08T07:43:57;8.40;;;3.73;;
5157;SDS011;2598;52.364;9.772;2023-01-08T07:46:23;8.20;;;3.63;;
5157;SDS011;2598;52.364;9.772;2023-01-08T07:48:49;7.70;;;3.50;;
5157;SDS011;2598;52.364;9.772;2023-01-08T07:51:15;6.87;;;3.57;;
5157;SDS011;2598;52.364;9.772;2023-01-08T07:53:41;6.50;;;3.20;;
5157;SDS011;2598;52.364;9.772;2023-01-08T07:56:07;8.10;;;3.60;;
5157;SDS011;2598;52.364;9.772;2023-01-08T07:58:34;7.20;;;3.70;;
5157;SDS011;2598;52.364;9.772;2023-01-08T08:01:01;8.30;;;3.37;;
5157;SDS011;2598;52.364;9.772;2023-01-08T08:03:27;12.53;;;3.23;;
5157;SDS011;2598;52.364;9.772;2023-01-08T08:05:53;5.83;;;3.23;;
5157;SDS011;2598;52.364;9.772;2023-01-08T08:08:19;7.73;;;3.47;;
5157;SDS011;2598;52.364;9.772;2023-01-08T08:10:45;6.53;;;2.80;;
5157;SDS011;2598;52.364;9.772;2023-01-08T08:13:12;6.93;;;2.97;;
5157;SDS011;2598;52.364;9.772;2023-01-08T08:15:38;7.63;;;3.63;;
5157;SDS011;2598;52.364;9.772;2023-01-08T08:18:05;7.37;;;3.17;;
5157;SDS011;2598;52.364;9.772;2023-01-08T08:20:31;5.73;;;2.90;;
5157;SDS011;2598;52.364;9.772;2023-01-08T08:23:04;6.20;;;3.00;;
5157;SDS011;2598;52.364;9.772;2023-01-08T08:25:31;5.93;;;2.70;;
5157;SDS011;2598;52.364;9.772;2023-01-08T08:27:57;6.03;;;3.00;;
5157;SDS011;2598;52.364;9.772;2023-01-08T08:30:23;7.67;;;3.47;;
5157;SDS011;2598;52.364;9.772;2023-01-08T08:32:50;5.80;;;3.00;;
5157;SDS011;2598;52.364;9.772;2023-01-08T08:35:16;6.50;;;2.87;;
5157;SDS011;2598;52.364;9.772;2023-01-08T08:37:42;5.60;;;2.70;;
5157;SDS011;2598;52.364;9.772;2023-01-08T08:40:08;7.83;;;2.97;;
5157;SDS011;2598;52.364;9.772;2023-01-08T08:42:34;6.03;;;3.07;;
5157;SDS011;2598;52.364;9.772;2023-01-08T08:45:00;5.93;;;2.80;;
5157;SDS011;2598;52.364;9.772;2023-01-08T08:47:26;5.37;;;2.50;;
5157;SDS011;2598;52.364;9.772;2023-01-08T08:49:52;7.20;;;2.23;;
5157;SDS011;2598;52.364;9.772;2023-01-08T08:52:18;6.77;;;2.80;;
5157;SDS011;2598;52.364;9.772;2023-01-08T08:54:44;5.33;;;2.50;;
5157;SDS011;2598;52.364;9.772;2023-01-08T08:57:10;6.47;;;3.13;;
5157;SDS011;2598;52.364;9.772;2023-01-08T08:59:36;6.90;;;2.90;;
5157;SDS011;2598;52.364;9.772;2023-01-08T09:02:02;6.17;;;2.47;;
5157;SDS011;2598;52.364;9.772;2023-01-08T09:04:29;5.30;;;2.47;;
5157;SDS011;2598;52.364;9.772;2023-01-08T09:06:55;6.70;;;2.97;;
5157;SDS011;2598;52.364;9.772;2023-01-08T09:09:22;5.20;;;2.17;;
5157;SDS011;2598;52.364;9.772;2023-01-08T09:11:47;6.70;;;2.90;;
5157;SDS011;2598;52.364;9.772;2023-01-08T09:14:13;6.83;;;2.33;;
5157;SDS011;2598;52.364;9.772;2023-01-08T09:16:39;6.50;;;3.00;;
5157;SDS011;2598;52.364;9.772;2023-01-08T09:19:05;7.47;;;2.93;;
5157;SDS011;2598;52.364;9.772;2023-01-08T09:21:31;6.50;;;2.87;;
5157;SDS011;2598;52.364;9.772;2023-01-08T09:23:57;5.73;;;2.70;;
5157;SDS011;2598;52.364;9.772;2023-01-08T09:26:23;4.90;;;2.07;;
5157;SDS011;2598;52.364;9.772;2023-01-08T09:28:52;5.57;;;2.50;;
5157;SDS011;2598;52.364;9.772;2023-01-08T09:31:18;6.00;;;2.50;;
5157;SDS011;2598;52.364;9.772;2023-01-08T09:33:46;6.57;;;2.40;;
5157;SDS011;2598;52.364;9.772;2023-01-08T09:36:12;6.90;;;2.77;;
5157;SDS011;2598;52.364;9.772;2023-01-08T09:38:38;6.40;;;2.90;;
5157;SDS011;2598;52.364;9.772;2023-01-08T09:41:05;5.87;;;2.43;;
5157;SDS011;2598;52.364;9.772;2023-01-08T09:43:33;5.33;;;2.00;;
5157;SDS011;2598;52.364;9.772;2023-01-08T09:46:01;5.90;;;2.50;;
5157;SDS011;2598;52.364;9.772;2023-01-08T09:48:29;6.30;;;2.20;;
5157;SDS011;2598;52.364;9.772;2023-01-08T09:50:56;5.57;;;2.20;;
5157;SDS011;2598;52.364;9.772;2023-01-08T09:53:22;5.73;;;2.70;;
5157;SDS011;2598;52.364;9.772;2023-01-08T09:55:59;5.63;;;2.20;;
5157;SDS011;2598;52.364;9.772;2023-01-08T10:00:55;4.90;;;1.90;;
5157;SDS011;2598;52.364;9.772;2023-01-08T10:03:24;5.53;;;2.00;;
5157;SDS011;2598;52.364;9.772;2023-01-08T10:05:52;4.47;;;1.67;;
5157;SDS011;2598;52.364;9.772;2023-01-08T10:08:18;5.20;;;2.10;;
5157;SDS011;2598;52.364;9.772;2023-01-08T10:10:44;4.67;;;1.70;;
5157;SDS011;2598;52.364;9.772;2023-01-08T10:13:10;5.07;;;1.80;;
5157;SDS011;2598;52.364;9.772;2023-01-08T10:15:38;5.80;;;2.00;;
5157;SDS011;2598;52.364;9.772;2023-01-08T10:18:05;5.43;;;1.97;;
5157;SDS011;2598;52.364;9.772;2023-01-08T10:20:32;4.07;;;1.47;;
5157;SDS011;2598;52.364;9.772;2023-01-08T10:23:14;4.90;;;1.70;;
5157;SDS011;2598;52.364;9.772;2023-01-08T10:28:20;4.73;;;1.77;;
5157;SDS011;2598;52.364;9.772;2023-01-08T10:30:46;4.63;;;1.50;;
5157;SDS011;2598;52.364;9.772;2023-01-08T10:33:17;6.77;;;1.87;;
5157;SDS011;2598;52.364;9.772;2023-01-08T10:35:50;5.10;;;1.83;;
5157;SDS011;2598;52.364;9.772;2023-01-08T10:38:23;4.77;;;1.50;;
5157;SDS011;2598;52.364;9.772;2023-01-08T10:40:50;6.43;;;1.87;;
5157;SDS011;2598;52.364;9.772;2023-01-08T10:43:20;4.70;;;2.00;;
5157;SDS011;2598;52.364;9.772;2023-01-08T10:45:54;4.97;;;1.50;;
5157;SDS011;2598;52.364;9.772;2023-01-08T10:48:21;4.30;;;1.53;;
5157;SDS011;2598;52.364;9.772;2023-01-08T10:50:47;4.10;;;1.30;;
5157;SDS011;2598;52.364;9.772;2023-01-08T10:53:20;5.07;;;1.70;;
5157;SDS011;2598;52.364;9.772;2023-01-08T10:55:55;5.10;;;1.80;;
5157;SDS011;2598;52.364;9.772;2023-01-08T10:58:22;4.97;;;1.77;;
5157;SDS011;2598;52.364;9.772;2023-01-08T11:00:47;4.10;;;1.27;;
5157;SDS011;2598;52.364;9.772;2023-01-08T11:03:23;4.43;;;1.53;;
5157;SDS011;2598;52.364;9.772;2023-01-08T11:05:51;5.07;;;1.33;;
5157;SDS011;2598;52.364;9.772;2023-01-08T11:08:18;4.60;;;1.67;;
5157;SDS011;2598;52.364;9.772;2023-01-08T11:10:54;4.20;;;1.60;;
5157;SDS011;2598;52.364;9.772;2023-01-08T11:13:20;3.90;;;1.10;;
5157;SDS011;2598;52.364;9.772;2023-01-08T11:15:46;3.90;;;1.23;;
5157;SDS011;2598;52.364;9.772;2023-01-08T11:18:23;4.13;;;1.33;;
5157;SDS011;2598;52.364;9.772;2023-01-08T11:20:50;4.20;;;1.10;;
5157;SDS011;2598;52.364;9.772;2023-01-08T11:23:18;4.10;;;1.27;;
5157;SDS011;2598;52.364;9.772;2023-01-08T11:25:53;4.20;;;1.17;;
5157;SDS011;2598;52.364;9.772;2023-01-08T11:28:23;4.10;;;1.20;;
5157;SDS011;2598;52.364;9.772;2023-01-08T11:30:57;4.20;;;1.10;;
5157;SDS011;2598;52.364;9.772;2023-01-08T11:33:26;5.80;;;1.40;;
5157;SDS011;2598;52.364;9.772;2023-01-08T11:35:55;4.40;;;1.10;;
5157;SDS011;2598;52.364;9.772;2023-01-08T11:38:23;4.97;;;1.13;;
5157;SDS011;2598;52.364;9.772;2023-01-08T11:40:50;4.43;;;0.83;;
5157;SDS011;2598;52.364;9.772;2023-01-08T11:51:06;4.20;;;1.00;;
5157;SDS011;2598;52.364;9.772;2023-01-08T11:53:40;3.50;;;0.73;;
5157;SDS011;2598;52.364;9.772;2023-01-08T11:58:56;4.33;;;1.10;;
5157;SDS011;2598;52.364;9.772;2023-01-08T12:09:37;4.10;;;1.00;;
5157;SDS011;2598;52.364;9.772;2023-01-08T12:14:56;4.33;;;1.00;;
5157;SDS011;2598;52.364;9.772;2023-01-08T12:22:28;4.60;;;0.77;;
5157;SDS011;2598;52.364;9.772;2023-01-08T12:25:08;5.27;;;1.20;;
5157;SDS011;2598;52.364;9.772;2023-01-08T12:32:55;8.67;;;1.20;;
5157;SDS011;2598;52.364;9.772;2023-01-08T12:35:24;4.30;;;0.93;;
5157;SDS011;2598;52.364;9.772;2023-01-08T12:37:51;5.40;;;0.83;;
5157;SDS011;2598;52.364;9.772;2023-01-08T12:40:40;4.73;;;1.23;;
5157;SDS011;2598;52.364;9.772;2023-01-08T12:43:10;4.80;;;1.30;;
5157;SDS011;2598;52.364;9.772;2023-01-08T12:45:39;4.33;;;0.90;;
5157;SDS011;2598;52.364;9.772;2023-01-08T12:48:06;4.40;;;1.00;;
5157;SDS011;2598;52.364;9.772;2023-01-08T12:50:38;5.00;;;0.87;;
5157;SDS011;2598;52.364;9.772;2023-01-08T12:55:38;7.43;;;1.10;;
5157;SDS011;2598;52.364;9.772;2023-01-08T12:58:16;5.70;;;1.10;;
5157;SDS011;2598;52.364;9.772;2023-01-08T13:03:30;5.53;;;1.20;;
5157;SDS011;2598;52.364;9.772;2023-01-08T13:06:04;5.83;;;1.20;;
5157;SDS011;2598;52.364;9.772;2023-01-08T13:08:32;4.20;;;1.07;;
5157;SDS011;2598;52.364;9.772;2023-01-08T13:10:59;5.23;;;1.10;;
5157;SDS011;2598;52.364;9.772;2023-01-08T13:13:29;5.63;;;1.30;;
5157;SDS011;2598;52.364;9.772;2023-01-08T13:18:30;8.23;;;1.27;;
5157;SDS011;2598;52.364;9.772;2023-01-08T13:20:56;4.90;;;1.10;;
5157;SDS011;2598;52.364;9.772;2023-01-08T13:23:24;5.73;;;1.13;;
5157;SDS011;2598;52.364;9.772;2023-01-08T13:25:52;6.17;;;1.47;;
5157;SDS011;2598;52.364;9.772;2023-01-08T13:31:23;7.50;;;1.53;;
5157;SDS011;2598;52.364;9.772;2023-01-08T13:33:51;5.90;;;1.53;;
5157;SDS011;2598;52.364;9.772;2023-01-08T13:38:45;4.70;;;1.10;;
5157;SDS011;2598;52.364;9.772;2023-01-08T13:41:27;3.77;;;0.90;;
5157;SDS011;2598;52.364;9.772;2023-01-08T13:43:58;6.20;;;1.30;;
5157;SDS011;2598;52.364;9.772;2023-01-08T13:46:25;6.20;;;1.60;;
5157;SDS011;2598;52.364;9.772;2023-01-08T13:48:54;8.13;;;1.70;;
5157;SDS011;2598;52.364;9.772;2023-01-08T13:51:37;9.43;;;1.50;;
5157;SDS011;2598;52.364;9.772;2023-01-08T13:54:05;5.13;;;1.23;;
5157;SDS011;2598;52.364;9.772;2023-01-08T13:56:33;9.90;;;1.40;;
5157;SDS011;2598;52.364;9.772;2023-01-08T13:58:59;4.70;;;1.30;;
5157;SDS011;2598;52.364;9.772;2023-01-08T14:01:25;5.27;;;1.27;;
5157;SDS011;2598;52.364;9.772;2023-01-08T14:03:51;4.30;;;0.93;;
5157;SDS011;2598;52.364;9.772;2023-01-08T14:06:21;5.93;;;1.07;;
5157;SDS011;2598;52.364;9.772;2023-01-08T14:08:48;7.53;;;1.40;;
5157;SDS011;2598;52.364;9.772;2023-01-08T14:11:14;7.93;;;1.07;;
5157;SDS011;2598;52.364;9.772;2023-01-08T14:13:41;5.23;;;1.37;;
5157;SDS011;2598;52.364;9.772;2023-01-08T14:16:09;5.50;;;0.93;;
5157;SDS011;2598;52.364;9.772;2023-01-08T14:18:38;7.33;;;1.27;;
5157;SDS011;2598;52.364;9.772;2023-01-08T14:21:04;4.93;;;1.00;;
5157;SDS011;2598;52.364;9.772;2023-01-08T14:23:31;4.27;;;1.10;;
5157;SDS011;2598;52.364;9.772;2023-01-08T14:26:00;5.60;;;1.20;;
5157;SDS011;2598;52.364;9.772;2023-01-08T14:28:27;4.00;;;0.90;;
5157;SDS011;2598;52.364;9.772;2023-01-08T14:30:54;5.37;;;1.17;;
5157;SDS011;2598;52.364;9.772;2023-01-08T14:33:24;4.63;;;1.00;;
5157;SDS011;2598;52.364;9.772;2023-01-08T14:35:51;4.70;;;0.97;;
5157;SDS011;2598;52.364;9.772;2023-01-08T14:38:19;4.70;;;0.93;;
5157;SDS011;2598;52.364;9.772;2023-01-08T14:40:46;4.87;;;1.30;;
5157;SDS011;2598;52.364;9.772;2023-01-08T14:43:15;5.53;;;1.30;;
5157;SDS011;2598;52.364;9.772;2023-01-08T14:45:45;5.20;;;1.43;;
5157;SDS011;2598;52.364;9.772;2023-01-08T14:48:17;5.10;;;1.13;;
5157;SDS011;2598;52.364;9.772;2023-01-08T14:50:44;4.30;;;0.93;;
5157;SDS011;2598;52.364;9.772;2023-01-08T14:55:43;4.27;;;1.03;;
5157;SDS011;2598;52.364;9.772;2023-01-08T14:58:13;4.80;;;1.10;;
5157;SDS011;2598;52.364;9.772;2023-01-08T15:00:40;4.40;;;1.40;;
5157;SDS011;2598;52.364;9.772;2023-01-08T15:03:19;5.00;;;1.17;;
5157;SDS011;2598;52.364;9.772;2023-01-08T15:05:47;4.40;;;1.27;;
5157;SDS011;2598;52.364;9.772;2023-01-08T15:08:23;4.40;;;1.37;;
5157;SDS011;2598;52.364;9.772;2023-01-08T15:10:57;5.53;;;1.80;;
5157;SDS011;2598;52.364;9.772;2023-01-08T15:13:23;4.63;;;1.73;;
5157;SDS011;2598;52.364;9.772;2023-01-08T15:15:52;4.40;;;1.20;;
5157;SDS011;2598;52.364;9.772;2023-01-08T15:18:19;5.80;;;1.60;;
5157;SDS011;2598;52.364;9.772;2023-01-08T15:20:45;4.63;;;1.30;;
5157;SDS011;2598;52.364;9.772;2023-01-08T15:23:17;6.77;;;1.63;;
5157;SDS011;2598;52.364;9.772;2023-01-08T15:25:47;4.73;;;1.70;;
5157;SDS011;2598;52.364;9.772;2023-01-08T15:28:13;4.50;;;1.47;;
5157;SDS011;2598;52.364;9.772;2023-01-08T15:30:43;4.93;;;1.40;;
5157;SDS011;2598;52.364;9.772;2023-01-08T15:33:15;6.27;;;1.60;;
5157;SDS011;2598;52.364;9.772;2023-01-08T15:35:42;5.20;;;1.87;;
5157;SDS011;2598;52.364;9.772;2023-01-08T15:38:09;7.83;;;1.90;;
5157;SDS011;2598;52.364;9.772;2023-01-08T15:40:36;5.73;;;1.83;;
5157;SDS011;2598;52.364;9.772;2023-01-08T15:43:02;4.37;;;1.33;;
5157;SDS011;2598;52.364;9.772;2023-01-08T15:45:34;5.07;;;1.90;;
5157;SDS011;2598;52.364;9.772;2023-01-08T15:48:01;4.83;;;1.50;;
5157;SDS011;2598;52.364;9.772;2023-01-08T15:50:27;5.10;;;1.53;;
5157;SDS011;2598;52.364;9.772;2023-01-08T15:52:56;4.37;;;1.60;;
5157;SDS011;2598;52.364;9.772;2023-01-08T15:55:22;7.00;;;2.13;;
5157;SDS011;2598;52.364;9.772;2023-01-08T15:57:49;5.07;;;2.00;;
5157;SDS011;2598;52.364;9.772;2023-01-08T16:00:15;5.30;;;1.60;;
5157;SDS011;2598;52.364;9.772;2023-01-08T16:02:43;5.30;;;1.33;;
5157;SDS011;2598;52.364;9.772;2023-01-08T16:05:09;5.40;;;1.90;;
5157;SDS011;2598;52.364;9.772;2023-01-08T16:07:35;4.67;;;1.70;;
5157;SDS011;2598;52.364;9.772;2023-01-08T16:10:01;4.10;;;1.30;;
5157;SDS011;2598;52.364;9.772;2023-01-08T16:12:28;4.73;;;1.37;;
5157;SDS011;2598;52.364;9.772;2023-01-08T16:14:53;5.10;;;1.47;;
5157;SDS011;2598;52.364;9.772;2023-01-08T16:17:19;4.37;;;1.23;;
5157;SDS011;2598;52.364;9.772;2023-01-08T16:19:45;5.40;;;1.50;;
5157;SDS011;2598;52.364;9.772;2023-01-08T16:22:11;5.00;;;1.60;;
5157;SDS011;2598;52.364;9.772;2023-01-08T16:24:37;6.50;;;1.50;;
5157;SDS011;2598;52.364;9.772;2023-01-08T16:27:03;4.90;;;1.27;;
5157;SDS011;2598;52.364;9.772;2023-01-08T16:29:30;4.90;;;1.70;;
5157;SDS011;2598;52.364;9.772;2023-01-08T16:31:56;4.43;;;1.67;;
5157;SDS011;2598;52.364;9.772;2023-01-08T16:34:23;5.70;;;1.73;;